sensor_id;sensor_type;location;lat;lon;timestamp;pressure;altitude;pressure_sealevel;temperature;humidity
6218;BME280;3142;48.206;11.550;2023-05-24T00:00:12;95882.75;;;17.12;64.54
6218;BME280;3142;48.206;11.550;2023-05-24T00:02:40;95889.22;;;17.16;64.27
6218;BME280;3142;48.206;11.550;2023-05-24T00:05:07;95879.28;;;17.23;63.99
6218;BME280;3142;48.206;11.550;2023-05-24T00:07:34;95878.72;;;17.21;64.19
6218;BME280;3142;48.206;11.550;2023-05-24T00:10:00;95877.88;;;17.32;63.96
6218;BME280;3142;48.206;11.550;2023-05-24T00:12:28;95871.53;;;17.33;63.83
6218;BME280;3142;48.206;11.550;2023-05-24T00:14:54;95875.94;;;17.28;64.18
6218;BME280;3142;48.206;11.550;2023-05-24T00:17:21;95875.69;;;17.29;64.15
6218;BME280;3142;48.206;11.550;2023-05-24T00:19:47;95873.06;;;17.29;63.71
6218;BME280;3142;48.206;11.550;2023-05-24T00:22:14;95876.88;;;17.22;64.03
6218;BME280;3142;48.206;11.550;2023-05-24T00:24:40;95869.91;;;17.15;64.64
6218;BME280;3142;48.206;11.550;2023-05-24T00:27:06;95873.28;;;17.28;64.28
6218;BME280;3142;48.206;11.550;2023-05-24T00:29:34;95869.50;;;17.24;64.21
6218;BME280;3142;48.206;11.550;2023-05-24T00:32:00;95872.69;;;17.26;64.19
6218;BME280;3142;48.206;11.550;2023-05-24T00:34:27;95871.09;;;17.25;64.16
6218;BME280;3142;48.206;11.550;2023-05-24T00:36:53;95872.88;;;17.19;64.32
6218;BME280;3142;48.206;11.550;2023-05-24T00:39:21;95867.13;;;17.10;65.03
6218;BME280;3142;48.206;11.550;2023-05-24T00:41:47;95865.66;;;17.14;65.04
6218;BME280;3142;48.206;11.550;2023-05-24T00:44:14;95868.84;;;17.16;64.50
6218;BME280;3142;48.206;11.550;2023-05-24T00:46:42;95864.88;;;17.02;64.74
6218;BME280;3142;48.206;11.550;2023-05-24T00:49:09;95863.03;;;17.03;65.19
6218;BME280;3142;48.206;11.550;2023-05-24T00:51:36;95861.41;;;17.13;64.90
6218;BME280;3142;48.206;11.550;2023-05-24T00:54:03;95863.03;;;17.03;65.34
6218;BME280;3142;48.206;11.550;2023-05-24T00:56:31;95864.69;;;16.92;65.10
6218;BME280;3142;48.206;11.550;2023-05-24T00:58:57;95863.88;;;16.92;65.08
6218;BME280;3142;48.206;11.550;2023-05-24T01:01:25;95867.38;;;16.80;65.92
6218;BME280;3142;48.206;11.550;2023-05-24T01:03:56;95862.84;;;16.93;65.58
6218;BME280;3142;48.206;11.550;2023-05-24T01:06:24;95860.91;;;16.88;65.33
6218;BME280;3142;48.206;11.550;2023-05-24T01:09:03;95858.59;;;16.92;65.21
6218;BME280;3142;48.206;11.550;2023-05-24T01:11:42;95857.50;;;16.76;65.59
6218;BME280;3142;48.206;11.550;2023-05-24T01:14:17;95858.78;;;16.73;65.73
6218;BME280;3142;48.206;11.550;2023-05-24T01:16:52;95847.94;;;16.86;65.61
6218;BME280;3142;48.206;11.550;2023-05-24T01:19:53;95851.72;;;16.91;65.52
6218;BME280;3142;48.206;11.550;2023-05-24T01:25:40;95851.28;;;16.82;65.92
6218;BME280;3142;48.206;11.550;2023-05-24T01:28:10;95847.34;;;16.84;65.45
6218;BME280;3142;48.206;11.550;2023-05-24T01:30:38;95856.47;;;16.77;65.52
6218;BME280;3142;48.206;11.550;2023-05-24T01:33:05;95846.53;;;16.84;65.71
6218;BME280;3142;48.206;11.550;2023-05-24T01:35:32;95851.84;;;16.84;65.99
6218;BME280;3142;48.206;11.550;2023-05-24T01:38:03;95849.31;;;16.89;66.45
6218;BME280;3142;48.206;11.550;2023-05-24T01:40:30;95848.53;;;17.05;65.25
6218;BME280;3142;48.206;11.550;2023-05-24T01:43:02;95851.91;;;17.01;66.14
6218;BME280;3142;48.206;11.550;2023-05-24T01:45:36;95851.03;;;17.12;65.11
6218;BME280;3142;48.206;11.550;2023-05-24T01:48:10;95850.81;;;17.13;65.23
6218;BME280;3142;48.206;11.550;2023-05-24T01:50:45;95853.31;;;16.92;65.87
6218;BME280;3142;48.206;11.550;2023-05-24T01:53:17;95854.41;;;16.67;66.41
6218;BME280;3142;48.206;11.550;2023-05-24T01:55:43;95858.63;;;16.80;66.19
6218;BME280;3142;48.206;11.550;2023-05-24T01:58:15;95857.59;;;16.81;66.38
6218;BME280;3142;48.206;11.550;2023-05-24T02:00:44;95862.06;;;16.80;66.58
6218;BME280;3142;48.206;11.550;2023-05-24T02:03:12;95857.72;;;16.86;66.02
6218;BME280;3142;48.206;11.550;2023-05-24T02:05:39;95860.91;;;16.88;66.21
6218;BME280;3142;48.206;11.550;2023-05-24T02:08:06;95849.94;;;16.68;66.62
6218;BME280;3142;48.206;11.550;2023-05-24T02:10:33;95851.78;;;16.67;66.99
6218;BME280;3142;48.206;11.550;2023-05-24T02:12:59;95849.66;;;16.81;66.45
6218;BME280;3142;48.206;11.550;2023-05-24T02:15:25;95845.50;;;16.85;65.89
6218;BME280;3142;48.206;11.550;2023-05-24T02:17:55;95849.81;;;16.74;66.02
6218;BME280;3142;48.206;11.550;2023-05-24T02:20:22;95851.91;;;16.72;66.66
6218;BME280;3142;48.206;11.550;2023-05-24T02:22:48;95853.13;;;16.81;66.08
6218;BME280;3142;48.206;11.550;2023-05-24T02:25:15;95853.81;;;16.77;66.54
6218;BME280;3142;48.206;11.550;2023-05-24T02:27:41;95854.41;;;16.67;66.17
6218;BME280;3142;48.206;11.550;2023-05-24T02:30:11;95853.25;;;16.63;66.80
6218;BME280;3142;48.206;11.550;2023-05-24T02:32:38;95854.53;;;16.61;66.86
6218;BME280;3142;48.206;11.550;2023-05-24T02:35:06;95852.13;;;16.59;66.93
6218;BME280;3142;48.206;11.550;2023-05-24T02:37:33;95846.38;;;16.62;66.91
6218;BME280;3142;48.206;11.550;2023-05-24T02:39:59;95842.81;;;16.56;66.62
6218;BME280;3142;48.206;11.550;2023-05-24T02:42:25;95851.78;;;16.44;67.23
6218;BME280;3142;48.206;11.550;2023-05-24T02:44:52;95846.88;;;16.47;67.09
6218;BME280;3142;48.206;11.550;2023-05-24T02:47:18;95850.19;;;16.43;66.86
6218;BME280;3142;48.206;11.550;2023-05-24T02:49:45;95854.91;;;16.41;67.38
6218;BME280;3142;48.206;11.550;2023-05-24T02:52:12;95842.84;;;16.45;67.55
6218;BME280;3142;48.206;11.550;2023-05-24T02:54:40;95843.28;;;16.42;67.47
6218;BME280;3142;48.206;11.550;2023-05-24T02:57:06;95836.63;;;16.51;67.18
6218;BME280;3142;48.206;11.550;2023-05-24T02:59:32;95839.84;;;16.41;67.35
6218;BME280;3142;48.206;11.550;2023-05-24T03:01:59;95837.69;;;16.38;67.43
6218;BME280;3142;48.206;11.550;2023-05-24T03:04:25;95839.09;;;16.17;67.87
6218;BME280;3142;48.206;11.550;2023-05-24T03:06:52;95843.22;;;16.13;68.37
6218;BME280;3142;48.206;11.550;2023-05-24T03:09:20;95850.34;;;16.13;68.07
6218;BME280;3142;48.206;11.550;2023-05-24T03:11:46;95848.16;;;16.10;67.79
6218;BME280;3142;48.206;11.550;2023-05-24T03:14:12;95850.00;;;15.97;68.39
6218;BME280;3142;48.206;11.550;2023-05-24T03:16:41;95849.75;;;16.11;67.86
6218;BME280;3142;48.206;11.550;2023-05-24T03:19:07;95847.81;;;16.18;67.92
6218;BME280;3142;48.206;11.550;2023-05-24T03:21:34;95844.72;;;16.33;67.45
6218;BME280;3142;48.206;11.550;2023-05-24T03:24:00;95844.34;;;16.29;67.09
6218;BME280;3142;48.206;11.550;2023-05-24T03:26:28;95842.41;;;16.36;66.96
6218;BME280;3142;48.206;11.550;2023-05-24T03:28:55;95851.28;;;16.18;67.10
6218;BME280;3142;48.206;11.550;2023-05-24T03:31:22;95860.22;;;15.94;68.18
6218;BME280;3142;48.206;11.550;2023-05-24T03:33:50;95860.22;;;16.06;68.47
6218;BME280;3142;48.206;11.550;2023-05-24T03:36:17;95854.13;;;15.93;68.53
6218;BME280;3142;48.206;11.550;2023-05-24T03:38:44;95861.91;;;15.88;68.60
6218;BME280;3142;48.206;11.550;2023-05-24T03:41:11;95861.69;;;16.02;68.96
6218;BME280;3142;48.206;11.550;2023-05-24T03:43:39;95865.50;;;16.06;68.46
6218;BME280;3142;48.206;11.550;2023-05-24T03:46:05;95871.00;;;16.16;68.12
6218;BME280;3142;48.206;11.550;2023-05-24T03:48:31;95869.75;;;16.18;68.12
6218;BME280;3142;48.206;11.550;2023-05-24T03:50:58;95863.78;;;16.23;67.79
6218;BME280;3142;48.206;11.550;2023-05-24T03:53:24;95868.94;;;16.06;68.26
6218;BME280;3142;48.206;11.550;2023-05-24T03:55:51;95872.72;;;16.10;68.58
6218;BME280;3142;48.206;11.550;2023-05-24T03:58:17;95865.25;;;15.95;68.77
6218;BME280;3142;48.206;11.550;2023-05-24T04:00:45;95871.56;;;15.94;68.41
6218;BME280;3142;48.206;11.550;2023-05-24T04:03:11;95871.69;;;15.76;69.20
6218;BME280;3142;48.206;11.550;2023-05-24T04:05:38;95879.22;;;15.73;69.48
6218;BME280;3142;48.206;11.550;2023-05-24T04:08:05;95877.50;;;15.66;69.57
6218;BME280;3142;48.206;11.550;2023-05-24T04:10:31;95875.97;;;15.59;69.61
6218;BME280;3142;48.206;11.550;2023-05-24T04:12:58;95884.28;;;15.74;69.09
6218;BME280;3142;48.206;11.550;2023-05-24T04:15:24;95877.41;;;15.85;68.44
6218;BME280;3142;48.206;11.550;2023-05-24T04:17:52;95886.00;;;15.68;68.25
6218;BME280;3142;48.206;11.550;2023-05-24T04:20:19;95889.22;;;15.70;67.97
6218;BME280;3142;48.206;11.550;2023-05-24T04:22:48;95881.75;;;15.67;67.84
6218;BME280;3142;48.206;11.550;2023-05-24T04:25:14;95880.97;;;15.49;67.93
6218;BME280;3142;48.206;11.550;2023-05-24T04:27:40;95879.13;;;15.37;67.93
6218;BME280;3142;48.206;11.550;2023-05-24T04:30:07;95882.25;;;15.46;67.90
6218;BME280;3142;48.206;11.550;2023-05-24T04:32:34;95882.88;;;15.30;68.36
6218;BME280;3142;48.206;11.550;2023-05-24T04:35:02;95876.97;;;15.46;67.32
6218;BME280;3142;48.206;11.550;2023-05-24T04:37:29;95878.09;;;15.68;66.64
6218;BME280;3142;48.206;11.550;2023-05-24T04:39:56;95879.34;;;15.66;65.78
6218;BME280;3142;48.206;11.550;2023-05-24T04:42:22;95882.28;;;15.58;66.34
6218;BME280;3142;48.206;11.550;2023-05-24T04:44:48;95885.72;;;15.58;65.64
6218;BME280;3142;48.206;11.550;2023-05-24T04:47:15;95892.09;;;15.39;66.13
6218;BME280;3142;48.206;11.550;2023-05-24T04:49:41;95892.53;;;15.36;66.10
6218;BME280;3142;48.206;11.550;2023-05-24T04:52:09;95891.78;;;15.17;66.86
6218;BME280;3142;48.206;11.550;2023-05-24T04:54:36;95887.63;;;15.09;67.53
6218;BME280;3142;48.206;11.550;2023-05-24T04:57:02;95895.38;;;15.04;67.18
6218;BME280;3142;48.206;11.550;2023-05-24T04:59:29;95894.88;;;15.14;67.56
6218;BME280;3142;48.206;11.550;2023-05-24T05:01:55;95897.16;;;15.10;67.11
6218;BME280;3142;48.206;11.550;2023-05-24T05:04:22;95891.81;;;14.99;67.43
6218;BME280;3142;48.206;11.550;2023-05-24T05:06:48;95887.34;;;14.99;67.78
6218;BME280;3142;48.206;11.550;2023-05-24T05:09:16;95887.53;;;15.16;67.55
6218;BME280;3142;48.206;11.550;2023-05-24T05:11:45;95893.78;;;15.33;66.88
6218;BME280;3142;48.206;11.550;2023-05-24T05:14:11;95891.91;;;15.52;66.43
6218;BME280;3142;48.206;11.550;2023-05-24T05:16:37;95888.56;;;15.57;66.25
6218;BME280;3142;48.206;11.550;2023-05-24T05:19:05;95893.34;;;15.48;66.25
6218;BME280;3142;48.206;11.550;2023-05-24T05:21:32;95894.38;;;15.47;66.58
6218;BME280;3142;48.206;11.550;2023-05-24T05:23:59;95891.94;;;15.34;66.58
6218;BME280;3142;48.206;11.550;2023-05-24T05:26:27;95892.13;;;15.51;66.70
6218;BME280;3142;48.206;11.550;2023-05-24T05:28:54;95894.44;;;15.59;65.93
6218;BME280;3142;48.206;11.550;2023-05-24T05:31:20;95899.94;;;15.57;66.22
6218;BME280;3142;48.206;11.550;2023-05-24T05:33:47;95896.44;;;15.63;65.78
6218;BME280;3142;48.206;11.550;2023-05-24T05:36:14;95900.28;;;15.49;66.33
6218;BME280;3142;48.206;11.550;2023-05-24T05:38:40;95890.53;;;15.50;66.68
6218;BME280;3142;48.206;11.550;2023-05-24T05:41:07;95888.00;;;15.55;66.52
6218;BME280;3142;48.206;11.550;2023-05-24T05:43:35;95892.69;;;15.53;66.84
6218;BME280;3142;48.206;11.550;2023-05-24T05:46:01;95883.25;;;15.63;66.76
6218;BME280;3142;48.206;11.550;2023-05-24T05:48:28;95888.91;;;15.90;65.62
6218;BME280;3142;48.206;11.550;2023-05-24T05:50:54;95881.44;;;16.11;65.00
6218;BME280;3142;48.206;11.550;2023-05-24T05:53:21;95883.28;;;16.10;64.53
6218;BME280;3142;48.206;11.550;2023-05-24T05:55:47;95884.22;;;16.04;65.47
6218;BME280;3142;48.206;11.550;2023-05-24T05:58:13;95888.09;;;16.25;64.56
6218;BME280;3142;48.206;11.550;2023-05-24T06:00:41;95887.75;;;16.21;64.47
6218;BME280;3142;48.206;11.550;2023-05-24T06:03:08;95882.72;;;16.20;64.80
6218;BME280;3142;48.206;11.550;2023-05-24T06:05:34;95884.09;;;16.22;64.78
6218;BME280;3142;48.206;11.550;2023-05-24T06:08:01;95887.06;;;16.38;64.41
6218;BME280;3142;48.206;11.550;2023-05-24T06:10:27;95880.63;;;16.34;64.25
6218;BME280;3142;48.206;11.550;2023-05-24T06:12:53;95873.69;;;16.56;63.86
6218;BME280;3142;48.206;11.550;2023-05-24T06:15:20;95871.63;;;16.70;63.62
6218;BME280;3142;48.206;11.550;2023-05-24T06:17:49;95869.91;;;16.64;63.37
6218;BME280;3142;48.206;11.550;2023-05-24T06:20:16;95878.66;;;16.76;62.84
6218;BME280;3142;48.206;11.550;2023-05-24T06:22:43;95874.50;;;16.80;63.12
6218;BME280;3142;48.206;11.550;2023-05-24T06:25:10;95879.00;;;16.68;63.54
6218;BME280;3142;48.206;11.550;2023-05-24T06:27:38;95870.44;;;16.89;63.52
6218;BME280;3142;48.206;11.550;2023-05-24T06:30:06;95867.00;;;16.88;63.39
6218;BME280;3142;48.206;11.550;2023-05-24T06:32:33;95864.31;;;17.00;63.32
6218;BME280;3142;48.206;11.550;2023-05-24T06:35:01;95870.88;;;16.98;63.66
6218;BME280;3142;48.206;11.550;2023-05-24T06:37:27;95876.78;;;16.88;63.45
6218;BME280;3142;48.206;11.550;2023-05-24T06:39:55;95873.50;;;16.98;62.65
6218;BME280;3142;48.206;11.550;2023-05-24T06:42:21;95872.63;;;17.21;62.11
6218;BME280;3142;48.206;11.550;2023-05-24T06:44:48;95878.41;;;17.34;62.23
6218;BME280;3142;48.206;11.550;2023-05-24T06:47:14;95882.09;;;17.33;61.58
6218;BME280;3142;48.206;11.550;2023-05-24T06:49:40;95877.53;;;17.29;60.64
6218;BME280;3142;48.206;11.550;2023-05-24T06:52:08;95878.72;;;17.21;61.38
6218;BME280;3142;48.206;11.550;2023-05-24T06:54:35;95882.31;;;17.15;61.64
6218;BME280;3142;48.206;11.550;2023-05-24T06:57:02;95879.59;;;17.27;60.92
6218;BME280;3142;48.206;11.550;2023-05-24T06:59:29;95877.38;;;17.35;60.52
6218;BME280;3142;48.206;11.550;2023-05-24T07:01:56;95886.28;;;17.29;61.20
6218;BME280;3142;48.206;11.550;2023-05-24T07:04:22;95888.19;;;17.34;61.27
6218;BME280;3142;48.206;11.550;2023-05-24T07:06:49;95888.72;;;17.47;60.67
6218;BME280;3142;48.206;11.550;2023-05-24T07:09:17;95888.63;;;17.42;60.72
6218;BME280;3142;48.206;11.550;2023-05-24T07:11:43;95894.72;;;17.43;61.57
6218;BME280;3142;48.206;11.550;2023-05-24T07:14:10;95892.47;;;17.52;61.21
6218;BME280;3142;48.206;11.550;2023-05-24T07:16:36;95896.84;;;17.58;60.65
6218;BME280;3142;48.206;11.550;2023-05-24T07:19:03;95896.19;;;17.67;60.67
6218;BME280;3142;48.206;11.550;2023-05-24T07:21:29;95899.47;;;17.58;61.19
6218;BME280;3142;48.206;11.550;2023-05-24T07:23:56;95892.81;;;17.55;60.85
6218;BME280;3142;48.206;11.550;2023-05-24T07:26:23;95894.44;;;17.56;60.71
6218;BME280;3142;48.206;11.550;2023-05-24T07:28:50;95899.59;;;17.51;60.76
6218;BME280;3142;48.206;11.550;2023-05-24T07:31:17;95902.00;;;17.36;60.59
6218;BME280;3142;48.206;11.550;2023-05-24T07:33:43;95906.16;;;17.32;61.29
6218;BME280;3142;48.206;11.550;2023-05-24T07:36:09;95903.47;;;17.43;61.36
6218;BME280;3142;48.206;11.550;2023-05-24T07:38:36;95898.19;;;17.60;61.04
6218;BME280;3142;48.206;11.550;2023-05-24T07:41:03;95898.53;;;17.81;60.71
6218;BME280;3142;48.206;11.550;2023-05-24T07:43:33;95890.88;;;17.96;60.43
6218;BME280;3142;48.206;11.550;2023-05-24T07:46:01;95894.22;;;18.08;58.40
6218;BME280;3142;48.206;11.550;2023-05-24T07:48:28;95903.75;;;18.09;58.28
6218;BME280;3142;48.206;11.550;2023-05-24T07:50:54;95896.16;;;18.13;58.59
6218;BME280;3142;48.206;11.550;2023-05-24T07:53:21;95893.66;;;18.06;58.23
6218;BME280;3142;48.206;11.550;2023-05-24T07:55:48;95906.03;;;17.84;59.19
6218;BME280;3142;48.206;11.550;2023-05-24T07:58:15;95894.72;;;17.88;58.89
6218;BME280;3142;48.206;11.550;2023-05-24T08:00:42;95893.59;;;17.84;59.45
6218;BME280;3142;48.206;11.550;2023-05-24T08:03:09;95905.13;;;17.78;59.83
6218;BME280;3142;48.206;11.550;2023-05-24T08:05:38;95903.16;;;17.57;59.90
6218;BME280;3142;48.206;11.550;2023-05-24T08:08:05;95897.38;;;17.60;58.96
6218;BME280;3142;48.206;11.550;2023-05-24T08:10:31;95913.34;;;17.65;59.77
6218;BME280;3142;48.206;11.550;2023-05-24T08:12:58;95908.84;;;17.65;59.31
6218;BME280;3142;48.206;11.550;2023-05-24T08:15:25;95907.72;;;17.61;58.41
6218;BME280;3142;48.206;11.550;2023-05-24T08:17:53;95901.47;;;17.67;57.47
6218;BME280;3142;48.206;11.550;2023-05-24T08:20:19;95912.75;;;17.74;57.74
6218;BME280;3142;48.206;11.550;2023-05-24T08:22:46;95913.25;;;17.71;58.30
6218;BME280;3142;48.206;11.550;2023-05-24T08:25:13;95915.88;;;17.71;58.26
6218;BME280;3142;48.206;11.550;2023-05-24T08:27:40;95920.00;;;17.67;58.28
6218;BME280;3142;48.206;11.550;2023-05-24T08:30:07;95919.13;;;17.62;58.91
6218;BME280;3142;48.206;11.550;2023-05-24T08:32:33;95920.88;;;17.56;59.16
6218;BME280;3142;48.206;11.550;2023-05-24T08:35:01;95922.00;;;17.60;58.38
6218;BME280;3142;48.206;11.550;2023-05-24T08:37:28;95912.47;;;17.59;58.02
6218;BME280;3142;48.206;11.550;2023-05-24T08:39:56;95921.41;;;17.41;59.11
6218;BME280;3142;48.206;11.550;2023-05-24T08:42:22;95927.69;;;17.24;59.51
6218;BME280;3142;48.206;11.550;2023-05-24T08:44:52;95926.81;;;17.06;60.12
6218;BME280;3142;48.206;11.550;2023-05-24T08:47:24;95930.78;;;16.80;60.03
6218;BME280;3142;48.206;11.550;2023-05-24T08:49:52;95938.13;;;16.67;60.22
6218;BME280;3142;48.206;11.550;2023-05-24T08:52:21;95931.81;;;16.79;59.63
6218;BME280;3142;48.206;11.550;2023-05-24T08:54:48;95930.19;;;16.90;59.01
6218;BME280;3142;48.206;11.550;2023-05-24T08:57:15;95927.41;;;16.97;59.33
6218;BME280;3142;48.206;11.550;2023-05-24T08:59:43;95937.41;;;17.06;59.90
6218;BME280;3142;48.206;11.550;2023-05-24T09:02:13;95929.63;;;16.88;60.52
6218;BME280;3142;48.206;11.550;2023-05-24T09:04:40;95928.25;;;16.85;60.37
6218;BME280;3142;48.206;11.550;2023-05-24T09:07:09;95926.19;;;16.87;60.68
6218;BME280;3142;48.206;11.550;2023-05-24T09:09:41;95923.16;;;16.96;59.46
6218;BME280;3142;48.206;11.550;2023-05-24T09:12:14;95917.56;;;17.21;58.62
6218;BME280;3142;48.206;11.550;2023-05-24T09:14:44;95911.00;;;17.23;58.82
6218;BME280;3142;48.206;11.550;2023-05-24T09:17:11;95916.97;;;17.30;58.38
6218;BME280;3142;48.206;11.550;2023-05-24T09:19:42;95926.22;;;17.44;57.61
6218;BME280;3142;48.206;11.550;2023-05-24T09:22:09;95928.81;;;17.56;57.01
6218;BME280;3142;48.206;11.550;2023-05-24T09:24:41;95931.75;;;17.71;57.58
6218;BME280;3142;48.206;11.550;2023-05-24T09:27:08;95926.22;;;17.73;57.47
6218;BME280;3142;48.206;11.550;2023-05-24T09:29:34;95935.69;;;17.69;57.00
6218;BME280;3142;48.206;11.550;2023-05-24T09:32:01;95926.75;;;17.58;57.61
6218;BME280;3142;48.206;11.550;2023-05-24T09:34:28;95927.09;;;17.50;58.14
6218;BME280;3142;48.206;11.550;2023-05-24T09:36:56;95932.03;;;17.58;58.38
6218;BME280;3142;48.206;11.550;2023-05-24T09:39:22;95932.44;;;17.38;58.79
6218;BME280;3142;48.206;11.550;2023-05-24T09:41:52;95928.75;;;17.39;57.91
6218;BME280;3142;48.206;11.550;2023-05-24T09:44:23;95929.03;;;17.26;58.55
6218;BME280;3142;48.206;11.550;2023-05-24T09:46:49;95931.38;;;17.23;58.45
6218;BME280;3142;48.206;11.550;2023-05-24T09:49:16;95929.25;;;17.36;58.58
6218;BME280;3142;48.206;11.550;2023-05-24T09:51:42;95926.91;;;17.40;58.07
6218;BME280;3142;48.206;11.550;2023-05-24T09:54:09;95939.16;;;17.29;58.63
6218;BME280;3142;48.206;11.550;2023-05-24T09:56:38;95931.88;;;17.08;58.60
6218;BME280;3142;48.206;11.550;2023-05-24T09:59:07;95932.81;;;17.02;59.31
6218;BME280;3142;48.206;11.550;2023-05-24T10:01:34;95943.28;;;16.85;59.51
6218;BME280;3142;48.206;11.550;2023-05-24T10:04:00;95948.56;;;16.85;59.74
6218;BME280;3142;48.206;11.550;2023-05-24T10:06:32;95937.66;;;16.93;58.99
6218;BME280;3142;48.206;11.550;2023-05-24T10:09:02;95938.25;;;16.83;58.82
6218;BME280;3142;48.206;11.550;2023-05-24T10:11:31;95938.50;;;16.70;59.22
6218;BME280;3142;48.206;11.550;2023-05-24T10:13:58;95933.91;;;16.77;58.64
6218;BME280;3142;48.206;11.550;2023-05-24T10:16:26;95943.09;;;16.75;58.01
6218;BME280;3142;48.206;11.550;2023-05-24T10:18:52;95943.09;;;16.63;58.48
6218;BME280;3142;48.206;11.550;2023-05-24T10:21:22;95944.94;;;16.74;57.53
6218;BME280;3142;48.206;11.550;2023-05-24T10:23:51;95938.69;;;16.92;58.16
6218;BME280;3142;48.206;11.550;2023-05-24T10:26:23;95946.38;;;16.94;57.69
6218;BME280;3142;48.206;11.550;2023-05-24T10:28:53;95950.41;;;16.84;57.49
6218;BME280;3142;48.206;11.550;2023-05-24T10:31:23;95951.34;;;16.90;57.05
6218;BME280;3142;48.206;11.550;2023-05-24T10:33:52;95948.56;;;16.85;57.26
6218;BME280;3142;48.206;11.550;2023-05-24T10:36:21;95953.97;;;17.02;57.13
6218;BME280;3142;48.206;11.550;2023-05-24T10:38:50;95950.16;;;16.98;57.63
6218;BME280;3142;48.206;11.550;2023-05-24T10:41:17;95945.00;;;17.03;57.24
6218;BME280;3142;48.206;11.550;2023-05-24T10:43:45;95947.25;;;17.11;56.76
6218;BME280;3142;48.206;11.550;2023-05-24T10:46:13;95952.16;;;17.31;55.76
6218;BME280;3142;48.206;11.550;2023-05-24T10:51:33;95941.00;;;17.29;55.35
6218;BME280;3142;48.206;11.550;2023-05-24T10:54:11;95947.78;;;17.25;55.81
6218;BME280;3142;48.206;11.550;2023-05-24T10:56:43;95947.91;;;17.30;55.69
6218;BME280;3142;48.206;11.550;2023-05-24T10:59:21;95948.75;;;17.18;54.69
6218;BME280;3142;48.206;11.550;2023-05-24T11:01:54;95943.78;;;17.22;53.97
6218;BME280;3142;48.206;11.550;2023-05-24T11:04:21;95949.31;;;17.21;54.35
6218;BME280;3142;48.206;11.550;2023-05-24T11:06:53;95952.91;;;17.14;54.90
6218;BME280;3142;48.206;11.550;2023-05-24T11:09:21;95949.75;;;17.29;54.69
6218;BME280;3142;48.206;11.550;2023-05-24T11:11:48;95953.16;;;17.41;54.60
6218;BME280;3142;48.206;11.550;2023-05-24T11:14:21;95958.66;;;17.40;54.82
6218;BME280;3142;48.206;11.550;2023-05-24T11:16:48;95951.63;;;17.45;53.82
6218;BME280;3142;48.206;11.550;2023-05-24T11:19:17;95948.84;;;17.52;54.12
6218;BME280;3142;48.206;11.550;2023-05-24T11:21:44;95947.72;;;17.48;53.94
6218;BME280;3142;48.206;11.550;2023-05-24T11:24:14;95942.63;;;17.58;53.19
6218;BME280;3142;48.206;11.550;2023-05-24T11:26:41;95948.44;;;17.43;53.28
6218;BME280;3142;48.206;11.550;2023-05-24T11:29:07;95944.53;;;17.34;53.97
6218;BME280;3142;48.206;11.550;2023-05-24T11:31:33;95937.91;;;17.32;53.89
6218;BME280;3142;48.206;11.550;2023-05-24T11:34:04;95943.94;;;17.44;54.18
6218;BME280;3142;48.206;11.550;2023-05-24T11:36:31;95941.88;;;17.46;53.98
6218;BME280;3142;48.206;11.550;2023-05-24T11:38:58;95940.34;;;17.50;53.84
6218;BME280;3142;48.206;11.550;2023-05-24T11:41:27;95945.47;;;17.68;54.27
6218;BME280;3142;48.206;11.550;2023-05-24T11:43:54;95939.22;;;17.91;54.56
6218;BME280;3142;48.206;11.550;2023-05-24T11:46:20;95939.03;;;18.10;53.22
6218;BME280;3142;48.206;11.550;2023-05-24T11:48:55;95935.22;;;18.05;53.81
6218;BME280;3142;48.206;11.550;2023-05-24T11:51:24;95935.22;;;18.05;52.98
6218;BME280;3142;48.206;11.550;2023-05-24T11:53:51;95941.50;;;18.16;51.80
6218;BME280;3142;48.206;11.550;2023-05-24T11:56:17;95940.84;;;18.26;51.37
6218;BME280;3142;48.206;11.550;2023-05-24T11:58:48;95942.22;;;18.12;51.57
6218;BME280;3142;48.206;11.550;2023-05-24T12:01:24;95941.69;;;17.81;51.37
6218;BME280;3142;48.206;11.550;2023-05-24T12:03:51;95939.34;;;17.96;51.39
6218;BME280;3142;48.206;11.550;2023-05-24T12:06:18;95940.03;;;18.09;51.97
6218;BME280;3142;48.206;11.550;2023-05-24T12:08:45;95935.06;;;17.95;52.67
6218;BME280;3142;48.206;11.550;2023-05-24T12:11:12;95935.41;;;17.82;51.88
6218;BME280;3142;48.206;11.550;2023-05-24T12:13:39;95943.09;;;17.84;51.39
6218;BME280;3142;48.206;11.550;2023-05-24T12:16:07;95940.09;;;17.80;52.17
6218;BME280;3142;48.206;11.550;2023-05-24T12:18:33;95947.34;;;17.85;51.75
6218;BME280;3142;48.206;11.550;2023-05-24T12:20:59;95944.28;;;17.93;51.72
6218;BME280;3142;48.206;11.550;2023-05-24T12:23:26;95937.88;;;17.89;50.85
6218;BME280;3142;48.206;11.550;2023-05-24T12:25:58;95938.84;;;17.83;49.98
6218;BME280;3142;48.206;11.550;2023-05-24T12:28:25;95945.38;;;17.80;50.36
6218;BME280;3142;48.206;11.550;2023-05-24T12:30:52;95938.59;;;17.84;50.36
6218;BME280;3142;48.206;11.550;2023-05-24T12:33:20;95934.59;;;17.98;50.58
6218;BME280;3142;48.206;11.550;2023-05-24T12:35:47;95938.53;;;18.13;49.04
6218;BME280;3142;48.206;11.550;2023-05-24T12:38:14;95944.31;;;18.10;49.12
6218;BME280;3142;48.206;11.550;2023-05-24T12:40:44;95949.28;;;18.06;49.17
6218;BME280;3142;48.206;11.550;2023-05-24T12:43:12;95946.63;;;18.06;49.41
6218;BME280;3142;48.206;11.550;2023-05-24T12:45:40;95949.13;;;18.13;49.51
6218;BME280;3142;48.206;11.550;2023-05-24T12:48:06;95951.34;;;18.04;48.81
6218;BME280;3142;48.206;11.550;2023-05-24T12:50:34;95942.69;;;17.92;49.78
6218;BME280;3142;48.206;11.550;2023-05-24T12:53:01;95948.94;;;17.86;49.00
6218;BME280;3142;48.206;11.550;2023-05-24T12:55:27;95945.03;;;17.60;49.63
6218;BME280;3142;48.206;11.550;2023-05-24T12:57:55;95946.47;;;17.67;50.04
6218;BME280;3142;48.206;11.550;2023-05-24T13:00:23;95942.13;;;17.61;50.19
6218;BME280;3142;48.206;11.550;2023-05-24T13:02:51;95936.56;;;17.74;50.72
6218;BME280;3142;48.206;11.550;2023-05-24T13:05:20;95925.75;;;17.93;50.13
6218;BME280;3142;48.206;11.550;2023-05-24T13:07:48;95935.97;;;18.01;49.58
6218;BME280;3142;48.206;11.550;2023-05-24T13:10:15;95923.34;;;17.91;49.12
6218;BME280;3142;48.206;11.550;2023-05-24T13:12:42;95927.94;;;17.96;50.08
6218;BME280;3142;48.206;11.550;2023-05-24T13:15:09;95933.38;;;18.06;49.66
6218;BME280;3142;48.206;11.550;2023-05-24T13:17:35;95920.00;;;18.13;48.98